Time;durP1;ratioP1;P1;durP2;ratioP2;P2;SDS_P1;SDS_P2;PMS_P1;PMS_P2;Temp;Humidity;BMP_temperature;BMP_pressure;BME280_temperature;BME280_humidity;BME280_pressure;Samples;Min_cycle;Max_cycle;Signal;HPM_P1;HPM_P2
2022/05/22 00:00:15;;;;;;;8.90;2.80;;;;;;;19.20;62.54;100654.09;2111241;28;20094;-71
2022/05/22 00:01:38;;;;;;;5.65;1.98;;;;;;;19.22;62.48;100646.94;2104710;28;20138;-71
2022/05/22 00:02:59;;;;;;;3.53;2.38;;;;;;;19.24;62.21;100643.28;2093796;28;20057;-71
2022/05/22 00:04:22;;;;;;;5.55;2.40;;;;;;;19.16;62.24;100649.75;2107520;28;20210;-71
2022/05/22 00:05:46;;;;;;;4.82;2.47;;;;;;;19.01;62.92;100648.25;2100875;28;20131;-71
2022/05/22 00:07:08;;;;;;;7.45;2.40;;;;;;;18.91;63.21;100644.88;2110868;28;20076;-71
2022/05/22 00:08:31;;;;;;;5.53;2.28;;;;;;;18.87;63.62;100642.31;2110411;28;20048;-71
2022/05/22 00:09:53;;;;;;;9.27;2.80;;;;;;;18.91;63.54;100644.88;2099556;28;20048;-71
2022/05/22 00:11:16;;;;;;;5.68;3.38;;;;;;;18.99;63.42;100645.63;2091201;28;20159;-71
2022/05/22 00:12:38;;;;;;;5.75;2.67;;;;;;;19.06;63.36;100649.94;2101551;28;20047;-72
2022/05/22 00:14:00;;;;;;;5.28;2.60;;;;;;;19.14;63.23;100643.53;2110375;28;20048;-71
2022/05/22 00:15:23;;;;;;;6.13;2.47;;;;;;;19.20;63.01;100643.41;2109968;28;20080;-71
2022/05/22 00:16:46;;;;;;;4.78;2.30;;;;;;;19.22;63.09;100645.13;2110355;28;20070;-71
2022/05/22 00:18:12;;;;;;;6.18;2.67;;;;;;;19.22;63.09;100644.25;2104314;28;20051;-71
2022/05/22 00:19:33;;;;;;;8.20;2.60;;;;;;;19.23;62.45;100635.31;2101904;28;20048;-71
2022/05/22 00:20:57;;;;;;;6.18;2.60;;;;;;;19.29;61.95;100625.34;2104497;28;20040;-71
2022/05/22 00:22:20;;;;;;;8.18;2.53;;;;;;;19.36;61.36;100626.09;2093436;28;20075;-71
2022/05/22 00:23:43;;;;;;;6.28;2.13;;;;;;;19.38;61.37;100625.13;2099659;28;20052;-71
2022/05/22 00:25:10;;;;;;;5.75;2.80;;;;;;;19.36;61.60;100620.75;2100821;28;20058;-70
2022/05/22 00:26:31;;;;;;;5.85;2.00;;;;;;;19.29;61.69;100620.00;2108899;28;20143;-71
2022/05/22 00:27:54;;;;;;;5.85;2.75;;;;;;;19.30;61.88;100620.84;2103821;28;20055;-71
2022/05/22 00:29:17;;;;;;;4.22;2.38;;;;;;;19.21;62.06;100621.06;2093145;28;20405;-71
2022/05/22 00:30:39;;;;;;;5.78;2.50;;;;;;;19.07;62.60;100624.94;2099051;28;20040;-72
2022/05/22 00:32:02;;;;;;;3.55;2.22;;;;;;;19.04;62.94;100618.75;2094376;28;20070;-71
2022/05/22 00:33:26;;;;;;;6.35;2.65;;;;;;;19.08;62.91;100618.69;2102079;28;20048;-72
2022/05/22 00:34:48;;;;;;;8.15;2.22;;;;;;;19.11;62.82;100610.56;2101903;28;20040;-71
2022/05/22 00:36:13;;;;;;;5.15;2.20;;;;;;;19.14;62.60;100611.41;2104189;28;20078;-70
2022/05/22 00:37:35;;;;;;;4.63;2.55;;;;;;;19.18;62.53;100602.41;2106883;28;20063;-71
2022/05/22 00:38:57;;;;;;;15.48;3.53;;;;;;;19.23;62.08;100598.69;2099930;28;20075;-70
2022/05/22 00:40:19;;;;;;;8.63;3.25;;;;;;;19.26;61.99;100590.63;2106665;28;20059;-70
2022/05/22 00:41:47;;;;;;;10.68;2.65;;;;;;;19.26;61.97;100590.63;2108323;28;20450;-71
2022/05/22 00:43:25;;;;;;;4.88;2.42;;;;;;;19.20;62.34;100596.09;2110657;28;20048;-71
2022/05/22 00:44:49;;;;;;;6.13;2.40;;;;;;;19.10;62.76;100592.75;2094830;28;20143;-71
2022/05/22 00:46:15;;;;;;;3.58;2.13;;;;;;;19.09;62.68;100596.34;2099622;28;20048;-71
2022/05/22 00:47:38;;;;;;;5.20;2.75;;;;;;;19.09;62.45;100599.03;2107555;28;20070;-70
2022/05/22 00:49:09;;;;;;;6.93;2.42;;;;;;;19.09;62.48;100599.03;2102579;28;20051;-70
2022/05/22 00:50:32;;;;;;;5.38;2.30;;;;;;;19.06;62.54;100607.13;2100507;28;20083;-71
2022/05/22 00:52:01;;;;;;;5.85;2.85;;;;;;;19.08;62.70;100601.72;2093090;28;20040;-71
2022/05/22 00:53:25;;;;;;;7.65;3.08;;;;;;;19.05;62.81;100599.09;2100898;28;20082;-71
2022/05/22 00:54:51;;;;;;;9.75;2.90;;;;;;;19.04;62.82;100598.22;2109327;28;20054;-71
2022/05/22 00:56:17;;;;;;;5.35;2.65;;;;;;;18.98;63.24;100606.38;2105904;28;20048;-71
2022/05/22 00:57:44;;;;;;;7.25;2.80;;;;;;;18.82;64.11;100617.47;2106003;28;20428;-71
2022/05/22 00:59:11;;;;;;;6.18;2.10;;;;;;;18.71;64.56;100620.31;2104255;28;20527;-70
2022/05/22 01:00:35;;;;;;;5.72;2.78;;;;;;;18.71;64.54;100625.69;2100883;28;20044;-71
2022/05/22 01:02:00;;;;;;;5.55;2.50;;;;;;;18.76;64.11;100629.16;2101527;28;20534;-70
2022/05/22 01:03:27;;;;;;;6.63;2.88;;;;;;;18.79;63.56;100645.13;2101389;28;20044;-70
2022/05/22 01:04:51;;;;;;;5.32;2.50;;;;;;;18.87;63.08;100644.97;2106430;28;20156;-70
2022/05/22 01:06:18;;;;;;;5.93;2.55;;;;;;;18.94;61.82;100644.84;2105828;28;20071;-70
2022/05/22 01:07:43;;;;;;;8.25;2.53;;;;;;;19.04;60.42;100646.38;2110728;28;20071;-70
2022/05/22 01:09:05;;;;;;;4.38;2.00;;;;;;;19.19;59.18;100649.66;2106160;28;20454;-70
2022/05/22 01:10:34;;;;;;;4.22;1.95;;;;;;;19.33;58.45;100637.75;2108463;28;20564;-71
2022/05/22 01:12:04;;;;;;;4.57;2.63;;;;;;;19.44;57.43;100630.34;2110749;28;20068;-70
2022/05/22 01:13:29;;;;;;;5.82;2.13;;;;;;;19.51;56.79;100623.09;2104728;28;20071;-70
2022/05/22 01:14:54;;;;;;;7.47;2.08;;;;;;;19.61;56.56;100613.06;2108993;28;20047;-70
2022/05/22 01:16:16;;;;;;;5.25;1.98;;;;;;;19.66;56.15;100606.66;2102246;28;20040;-70
2022/05/22 01:17:43;;;;;;;8.38;2.47;;;;;;;19.72;56.16;100597.59;2098672;28;20032;-70
2022/05/22 01:19:12;;;;;;;4.18;2.10;;;;;;;19.76;56.21;100597.47;2101980;28;20423;-70
2022/05/22 01:20:35;;;;;;;3.80;2.10;;;;;;;19.64;57.08;100596.88;2102370;28;20047;-70
2022/05/22 01:22:01;;;;;;;5.05;2.25;;;;;;;19.46;58.01;100598.22;2099083;28;20044;-71
2022/05/22 01:23:23;;;;;;;4.50;2.15;;;;;;;19.30;58.77;100596.75;2101205;28;20415;-70
2022/05/22 01:24:45;;;;;;;;;;;;;;;19.20;59.31;100597.91;2095218;28;20040;-70
2022/05/22 01:26:08;;;;;;;4.90;2.15;;;;;;;19.13;59.61;100596.28;2099763;28;19956;-70
2022/05/22 01:27:31;;;;;;;4.80;2.20;;;;;;;19.10;59.74;100597.22;2094820;28;20063;-70
2022/05/22 01:29:16;;;;;;;5.47;2.20;;;;;;;19.08;60.28;100591.03;2105865;28;20087;-70
2022/05/22 01:30:39;;;;;;;7.95;2.45;;;;;;;19.10;60.22;100603.44;2098387;28;20057;-70
2022/05/22 01:32:04;;;;;;;5.72;2.30;;;;;;;19.17;60.12;100597.94;2100962;28;20124;-71
2022/05/22 01:33:27;;;;;;;6.50;2.17;;;;;;;19.20;59.94;100598.78;2097587;28;20408;-70
2022/05/22 01:34:53;;;;;;;4.88;2.17;;;;;;;19.25;59.82;100604.91;2102155;28;20159;-71
2022/05/22 01:36:18;;;;;;;5.10;2.40;;;;;;;19.23;60.04;100608.56;2094798;28;20052;-70
2022/05/22 01:37:49;;;;;;;5.90;2.25;;;;;;;19.19;60.09;100598.81;2102315;28;20130;-71
2022/05/22 01:39:12;;;;;;;5.18;2.22;;;;;;;19.15;60.48;100605.16;2095071;28;20044;-71
2022/05/22 01:40:44;;;;;;;4.95;2.65;;;;;;;19.09;60.82;100617.75;2101116;28;20090;-70
2022/05/22 01:42:07;;;;;;;7.47;2.85;;;;;;;19.04;61.13;100618.75;2106647;28;20142;-71
2022/05/22 01:43:29;;;;;;;5.88;2.78;;;;;;;19.00;61.29;100617.94;2095025;28;20664;-70
2022/05/22 01:44:53;;;;;;;8.43;2.75;;;;;;;19.00;61.25;100617.06;2095555;28;20218;-70
2022/05/22 01:46:16;;;;;;;4.43;1.92;;;;;;;18.99;61.10;100615.28;2116990;27;20047;-70
2022/05/22 01:47:49;;;;;;;7.32;2.03;;;;;;;19.05;60.71;100623.19;2105634;28;20048;-70
2022/05/22 01:49:12;;;;;;;5.28;2.20;;;;;;;19.11;59.93;100617.72;2100960;28;20040;-70
2022/05/22 01:50:33;;;;;;;5.13;2.22;;;;;;;19.20;59.34;100624.66;2100258;28;20044;-71
2022/05/22 01:51:56;;;;;;;5.75;2.95;;;;;;;19.27;58.93;100632.53;2102775;28;20059;-71
2022/05/22 01:53:20;;;;;;;6.18;2.67;;;;;;;19.33;58.76;100636.84;2094571;28;20133;-70
2022/05/22 01:54:46;;;;;;;6.03;2.05;;;;;;;19.29;59.00;100640.53;2095509;28;20090;-70
2022/05/22 01:56:09;;;;;;;3.50;1.50;;;;;;;19.02;60.05;100640.22;2100505;28;20044;-71
2022/05/22 01:57:33;;;;;;;7.63;2.15;;;;;;;18.52;61.86;100646.50;2109671;28;20067;-71
2022/05/22 01:58:57;;;;;;;3.05;1.77;;;;;;;18.09;63.69;100656.22;2101748;28;20565;-71
2022/05/22 02:00:30;;;;;;;4.70;1.77;;;;;;;17.62;65.84;100652.50;2104621;28;20044;-72
2022/05/22 02:01:54;;;;;;;8.63;2.15;;;;;;;17.36;67.50;100667.97;2110409;28;20047;-73
2022/05/22 02:03:16;;;;;;;10.68;2.05;;;;;;;17.23;68.54;100672.59;2102954;28;20146;-72
2022/05/22 02:04:39;;;;;;;6.30;1.75;;;;;;;17.19;69.12;100681.56;2108163;28;20048;-72
2022/05/22 02:06:00;;;;;;;5.38;1.95;;;;;;;17.17;69.49;100683.34;2098012;28;20055;-72
2022/05/22 02:09:17;;;;;;;5.43;2.22;;;;;;;17.24;70.25;100701.06;2071798;28;20068;-71
2022/05/22 02:10:44;;;;;;;4.85;1.80;;;;;;;17.26;70.65;100698.38;2079044;28;20053;-72
2022/05/22 02:12:07;;;;;;;10.13;2.85;;;;;;;17.41;70.34;100699.03;2102960;28;20044;-72
2022/05/22 02:13:33;;;;;;;5.63;2.45;;;;;;;17.58;69.86;100705.94;2094580;28;20043;-72
2022/05/22 02:14:54;;;;;;;7.43;2.28;;;;;;;17.70;69.48;100717.38;2092397;28;20053;-72
2022/05/22 02:16:17;;;;;;;9.02;2.13;;;;;;;17.80;69.24;100723.44;2101202;28;20726;-71
2022/05/22 02:17:38;;;;;;;14.00;2.50;;;;;;;17.83;69.23;100729.63;2094635;28;20089;-71
2022/05/22 02:19:01;;;;;;;7.90;1.95;;;;;;;17.87;69.16;100725.13;2102983;28;20086;-71
2022/05/22 02:20:25;;;;;;;7.90;2.35;;;;;;;17.90;69.18;100719.75;2096199;28;20569;-72
2022/05/22 02:21:47;;;;;;;9.82;1.90;;;;;;;17.95;68.79;100725.88;2101445;28;20054;-71
2022/05/22 02:23:11;;;;;;;6.55;1.92;;;;;;;18.00;68.56;100724.03;2100432;28;20044;-71
2022/05/22 02:24:35;;;;;;;4.78;1.77;;;;;;;18.05;68.18;100723.97;2100493;28;20040;-71
2022/05/22 02:26:11;;;;;;;6.15;1.80;;;;;;;18.11;67.83;100719.41;2102272;28;20064;-71
2022/05/22 02:27:33;;;;;;;10.13;1.92;;;;;;;18.16;67.35;100722.88;2109487;28;20121;-71
2022/05/22 02:28:56;;;;;;;3.78;1.58;;;;;;;18.20;66.97;100726.38;2102845;28;20078;-72
2022/05/22 02:30:21;;;;;;;3.70;1.50;;;;;;;18.23;66.54;100719.22;2098321;28;20078;-71
2022/05/22 02:31:44;;;;;;;4.72;1.80;;;;;;;18.24;66.50;100714.75;2100691;28;20040;-71
2022/05/22 02:33:07;;;;;;;5.80;1.70;;;;;;;18.23;66.33;100713.88;2108173;28;20134;-72
2022/05/22 02:34:37;;;;;;;3.72;1.80;;;;;;;18.32;66.14;100707.47;2103670;28;20040;-71
2022/05/22 02:36:00;;;;;;;3.45;1.52;;;;;;;18.37;65.20;100710.09;2099404;28;20051;-70
2022/05/22 02:37:27;;;;;;;5.00;1.45;;;;;;;18.41;64.62;100706.44;2102168;28;20072;-72
2022/05/22 02:38:51;;;;;;;7.28;1.83;;;;;;;18.45;64.44;100709.03;2094273;28;20032;-71
2022/05/22 02:40:17;;;;;;;13.80;1.95;;;;;;;18.50;64.45;100699.16;2100213;28;20054;-71
2022/05/22 02:41:47;;;;;;;6.82;1.85;;;;;;;18.53;64.06;100699.09;2095605;28;20655;-71
2022/05/22 02:43:09;;;;;;;7.75;2.35;;;;;;;18.56;63.46;100691.06;2100210;28;20415;-71
2022/05/22 02:44:32;;;;;;;5.40;2.05;;;;;;;18.56;62.89;100704.41;2109736;28;20051;-71
2022/05/22 02:45:55;;;;;;;6.38;2.20;;;;;;;18.57;62.53;100713.31;2095393;28;20049;-71
2022/05/22 02:47:16;;;;;;;9.18;2.88;;;;;;;18.53;62.34;100727.59;2106733;28;20044;-71
2022/05/22 02:48:40;;;;;;;5.68;1.63;;;;;;;18.45;62.15;100729.53;2096767;28;20495;-71
2022/05/22 02:50:04;;;;;;;7.28;1.60;;;;;;;18.39;62.17;100735.84;2094786;28;20067;-71
2022/05/22 02:51:27;;;;;;;8.07;1.40;;;;;;;18.37;62.22;100734.13;2095661;28;20044;-71
2022/05/22 02:52:52;;;;;;;3.92;1.85;;;;;;;18.38;62.02;100746.59;2100550;28;20040;-70
2022/05/22 02:54:18;;;;;;;8.52;1.55;;;;;;;18.37;62.15;100742.16;2103262;28;20055;-70
2022/05/22 02:56:10;;;;;;;6.22;2.22;;;;;;;18.40;62.80;100750.09;2113353;28;20116;-71
2022/05/22 02:57:52;;;;;;;4.03;1.17;;;;;;;18.42;62.84;100735.81;2089907;28;20072;-71
2022/05/22 02:59:16;;;;;;;5.78;1.50;;;;;;;18.49;62.37;100739.28;2105533;28;20036;-70
2022/05/22 03:00:54;;;;;;;6.38;1.73;;;;;;;18.55;61.98;100739.16;2096621;28;20398;-71
2022/05/22 03:02:15;;;;;;;5.18;1.95;;;;;;;18.58;61.57;100753.38;2108446;28;20566;-70
2022/05/22 03:03:38;;;;;;;7.05;2.00;;;;;;;18.60;61.38;100764.94;2096356;28;20408;-70
2022/05/22 03:05:00;;;;;;;4.88;2.00;;;;;;;18.62;61.27;100762.25;2101784;28;20052;-71
2022/05/22 03:06:42;;;;;;;6.03;1.27;;;;;;;18.60;61.27;100772.97;2100040;28;20044;-70
2022/05/22 03:08:05;;;;;;;3.28;1.40;;;;;;;18.62;60.94;100764.94;2096645;28;20048;-71
2022/05/22 03:09:32;;;;;;;5.57;1.63;;;;;;;18.58;60.96;100752.50;2092998;28;20040;-71
2022/05/22 03:10:56;;;;;;;4.00;1.30;;;;;;;18.55;61.01;100745.44;2094206;28;20548;-70
2022/05/22 03:12:21;;;;;;;5.50;1.40;;;;;;;18.57;61.07;100750.75;2097402;28;20047;-70
2022/05/22 03:13:46;;;;;;;11.52;1.60;;;;;;;18.59;61.06;100744.47;2101313;28;20040;-70
2022/05/22 03:15:12;;;;;;;6.00;1.60;;;;;;;18.65;60.87;100752.38;2097757;28;20066;-71
2022/05/22 03:16:35;;;;;;;4.22;1.30;;;;;;;18.71;60.50;100748.69;2100267;28;20357;-71
2022/05/22 03:18:15;;;;;;;5.47;1.63;;;;;;;18.77;60.17;100751.28;2104294;28;20093;-71
2022/05/22 03:19:37;;;;;;;6.82;1.48;;;;;;;18.83;59.86;100758.31;2107322;28;20125;-71
2022/05/22 03:20:59;;;;;;;8.38;1.77;;;;;;;18.87;59.67;100762.69;2102327;28;20052;-71
2022/05/22 03:22:23;;;;;;;4.35;1.30;;;;;;;18.88;59.63;100777.84;2107891;28;20048;-71
2022/05/22 03:23:44;;;;;;;8.23;1.70;;;;;;;18.87;59.74;100779.63;2102771;28;20075;-70
2022/05/22 03:25:09;;;;;;;4.68;1.30;;;;;;;18.91;59.74;100775.97;2102554;28;20573;-71
2022/05/22 03:26:32;;;;;;;5.00;1.52;;;;;;;18.94;59.58;100772.38;2094013;28;20140;-71
2022/05/22 03:27:56;;;;;;;5.18;1.30;;;;;;;18.97;59.69;100794.59;2100239;28;20056;-72
2022/05/22 03:29:25;;;;;;;7.03;1.55;;;;;;;18.99;59.75;100770.47;2095039;28;20082;-71
2022/05/22 03:30:50;;;;;;;4.72;1.40;;;;;;;19.01;59.70;100766.88;2095979;28;20059;-71
2022/05/22 03:32:13;;;;;;;5.65;1.42;;;;;;;19.02;59.83;100774.00;2107249;28;20047;-71
2022/05/22 03:33:37;;;;;;;7.68;1.92;;;;;;;19.05;59.86;100781.94;2096689;28;20052;-71
2022/05/22 03:35:00;;;;;;;6.88;1.33;;;;;;;19.08;59.66;100783.69;2098979;28;20075;-72
2022/05/22 03:36:24;;;;;;;7.07;1.48;;;;;;;19.12;59.79;100780.03;2102538;28;20587;-71
2022/05/22 03:37:49;;;;;;;6.07;1.65;;;;;;;19.16;59.71;100757.69;2094316;28;20043;-71
2022/05/22 03:39:10;;;;;;;9.95;1.60;;;;;;;19.18;59.77;100741.56;2099662;28;20055;-72
2022/05/22 03:40:33;;;;;;;3.35;1.15;;;;;;;19.17;59.68;100731.78;2096567;28;20063;-71
2022/05/22 03:41:54;;;;;;;4.18;1.65;;;;;;;19.18;59.71;100707.66;2101993;28;20055;-71
2022/05/22 03:43:21;;;;;;;5.45;1.20;;;;;;;19.23;59.59;100697.72;2116743;27;20047;-72
2022/05/22 03:44:44;;;;;;;9.80;1.23;;;;;;;19.25;59.53;100695.91;2099232;28;20765;-71
2022/05/22 03:46:07;;;;;;;12.32;1.58;;;;;;;19.25;59.88;100698.59;2098518;28;20054;-71
2022/05/22 03:47:35;;;;;;;6.35;1.63;;;;;;;19.18;60.21;100701.41;2100458;28;20067;-71
2022/05/22 03:49:01;;;;;;;7.13;1.55;;;;;;;19.10;60.71;100707.81;2100878;28;20086;-71
2022/05/22 03:50:30;;;;;;;5.72;1.73;;;;;;;19.00;61.41;100714.28;2101466;28;20047;-71
2022/05/22 03:51:52;;;;;;;5.18;1.67;;;;;;;18.96;62.00;100727.75;2103346;28;20044;-71
2022/05/22 03:53:15;;;;;;;5.03;1.75;;;;;;;18.94;62.33;100726.88;2093713;28;20159;-71
2022/05/22 03:54:39;;;;;;;4.45;1.85;;;;;;;18.93;62.37;100742.06;2100348;28;20039;-71
2022/05/22 03:56:11;;;;;;;5.07;1.23;;;;;;;18.98;62.52;100747.31;2109975;28;20150;-71
2022/05/22 03:57:34;;;;;;;3.95;1.27;;;;;;;18.98;62.67;100744.63;2096304;28;20560;-71
2022/05/22 03:58:58;;;;;;;7.32;1.75;;;;;;;19.03;62.75;100748.97;2108093;28;20062;-71
2022/05/22 04:00:24;;;;;;;7.55;2.42;;;;;;;19.11;62.23;100749.72;2097041;28;20543;-70
2022/05/22 04:01:49;;;;;;;6.20;1.60;;;;;;;19.18;61.90;100755.84;2099791;28;20048;-71
2022/05/22 04:03:11;;;;;;;5.45;2.38;;;;;;;19.22;61.75;100751.31;2102245;28;20052;-71
2022/05/22 04:04:34;;;;;;;3.58;1.33;;;;;;;19.25;61.91;100757.47;2098705;28;20127;-72
2022/05/22 04:06:05;;;;;;;5.90;1.23;;;;;;;19.26;61.92;100769.06;2103782;28;20101;-71
2022/05/22 04:07:29;;;;;;;5.63;1.33;;;;;;;19.28;61.95;100754.75;2094509;28;20093;-71
2022/05/22 04:08:56;;;;;;;9.48;2.13;;;;;;;19.30;61.96;100766.28;2100585;28;20040;-71
2022/05/22 04:10:38;;;;;;;7.97;3.65;;;;;;;19.33;61.83;100760.00;2107927;28;20051;-72
2022/05/22 04:12:00;;;;;;;5.10;1.50;;;;;;;19.35;61.59;100751.03;2110538;28;20043;-71
2022/05/22 04:13:23;;;;;;;3.95;1.65;;;;;;;19.38;61.70;100758.09;2101767;28;20052;-72
2022/05/22 04:14:48;;;;;;;7.15;1.65;;;;;;;19.44;61.27;100766.00;2104628;28;20136;-72
2022/05/22 04:16:12;;;;;;;6.82;1.88;;;;;;;19.49;61.00;100762.34;2099362;28;20108;-71
2022/05/22 04:17:35;;;;;;;6.70;1.52;;;;;;;19.56;60.38;100763.09;2100076;28;20043;-71
2022/05/22 04:19:07;;;;;;;8.52;1.83;;;;;;;19.63;59.55;100763.84;2103357;28;20055;-71
2022/05/22 04:20:29;;;;;;;7.97;1.65;;;;;;;19.69;58.92;100764.59;2101671;28;20055;-71
2022/05/22 04:22:11;;;;;;;9.18;2.53;;;;;;;19.85;58.54;100760.69;2111831;28;20126;-70
2022/05/22 04:25:24;;;;;;;3.42;1.35;;;;;;;20.43;57.96;100758.47;2072967;28;20195;-70
2022/05/22 04:26:48;;;;;;;8.07;1.45;;;;;;;20.73;57.70;100768.44;2093090;28;20495;-71
2022/05/22 04:28:10;;;;;;;8.88;1.77;;;;;;;21.05;57.27;100756.81;2097440;28;20567;-71
2022/05/22 04:29:33;;;;;;;6.10;2.03;;;;;;;21.33;56.50;100770.41;2084575;28;20520;-71
2022/05/22 04:30:57;;;;;;;5.80;1.63;;;;;;;21.64;55.67;100776.63;2096462;28;20400;-71
2022/05/22 04:32:21;;;;;;;5.95;1.45;;;;;;;21.96;54.94;100782.88;2094784;28;20048;-71
2022/05/22 04:33:45;;;;;;;8.15;1.35;;;;;;;22.25;53.92;100762.19;2097400;28;20072;-71
2022/05/22 04:35:09;;;;;;;4.03;0.90;;;;;;;22.45;52.93;100769.59;2107071;28;20051;-70
2022/05/22 04:36:32;;;;;;;6.55;1.70;;;;;;;22.69;52.08;100759.84;2103870;28;20090;-70
2022/05/22 04:37:55;;;;;;;6.05;1.35;;;;;;;23.02;51.72;100769.47;2098862;28;20080;-71
2022/05/22 04:39:16;;;;;;;8.45;1.52;;;;;;;23.34;50.92;100756.66;2105377;28;20093;-71
2022/05/22 04:40:56;;;;;;;3.85;1.40;;;;;;;23.61;50.20;100747.56;2099668;28;20492;-71
2022/05/22 04:42:19;;;;;;;9.77;1.58;;;;;;;23.65;49.92;100751.88;2110654;28;20044;-71
2022/05/22 04:43:42;;;;;;;4.28;1.25;;;;;;;23.58;49.86;100744.09;2100543;28;20048;-71
2022/05/22 04:45:05;;;;;;;9.25;1.58;;;;;;;23.55;49.86;100749.63;2097560;28;20253;-71
2022/05/22 04:46:54;;;;;;;4.45;1.38;;;;;;;23.35;50.23;100762.00;2114809;28;20063;-71
2022/05/22 04:48:15;;;;;;;6.05;1.40;;;;;;;23.20;50.19;100757.16;2103365;28;20130;-71
2022/05/22 04:49:53;;;;;;;8.27;1.20;;;;;;;23.09;50.19;100753.09;2104327;28;20047;-71
2022/05/22 04:51:16;;;;;;;10.63;1.52;;;;;;;23.04;50.27;100748.72;2094182;28;20045;-71
2022/05/22 04:52:47;;;;;;;7.93;2.08;;;;;;;23.01;50.46;100748.88;2095004;28;20045;-71
2022/05/22 04:54:12;;;;;;;4.63;1.58;;;;;;;22.91;50.47;100747.41;2100934;28;20048;-70
2022/05/22 04:55:53;;;;;;;9.48;1.73;;;;;;;22.80;50.75;100759.50;2102873;28;20052;-71
2022/05/22 04:57:16;;;;;;;7.95;1.40;;;;;;;22.62;50.35;100750.22;2103509;28;20074;-71
2022/05/22 04:58:38;;;;;;;7.15;1.52;;;;;;;22.47;50.46;100743.53;2100492;28;20471;-71
2022/05/22 05:00:09;;;;;;;4.85;1.65;;;;;;;22.33;50.56;100745.81;2094105;28;20432;-70
2022/05/22 05:01:35;;;;;;;4.78;1.88;;;;;;;22.22;50.72;100730.03;2104123;28;20052;-71
2022/05/22 05:03:10;;;;;;;7.03;1.50;;;;;;;22.12;50.83;100733.94;2097474;28;20041;-71
2022/05/22 05:04:33;;;;;;;6.40;1.40;;;;;;;22.04;50.82;100729.75;2084591;28;20044;-71
2022/05/22 05:06:07;;;;;;;6.28;1.60;;;;;;;21.93;50.86;100735.41;2099560;28;20508;-70
2022/05/22 05:07:30;;;;;;;7.10;1.92;;;;;;;21.83;51.05;100739.34;2109633;28;20100;-71
2022/05/22 05:08:58;;;;;;;10.88;1.60;;;;;;;21.73;51.15;100736.03;2094554;28;20049;-71
2022/05/22 05:10:26;;;;;;;4.55;1.33;;;;;;;21.67;50.88;100730.84;2108661;28;20052;-71
2022/05/22 05:12:15;;;;;;;4.85;1.35;;;;;;;21.60;50.97;100726.59;2110998;28;20123;-71
2022/05/22 05:13:39;;;;;;;6.60;1.50;;;;;;;21.56;51.12;100726.72;2102233;28;20108;-71
2022/05/22 05:15:02;;;;;;;7.18;2.10;;;;;;;21.53;51.02;100722.31;2100256;28;20695;-71
2022/05/22 05:16:25;;;;;;;7.30;1.70;;;;;;;21.53;50.95;100730.38;2099859;28;20385;-70
2022/05/22 05:17:58;;;;;;;2.70;1.17;;;;;;;21.53;50.90;100727.69;2112124;28;20054;-71
2022/05/22 05:19:24;;;;;;;4.63;1.45;;;;;;;21.55;50.66;100736.59;2107789;28;20435;-70
2022/05/22 05:20:49;;;;;;;4.38;1.27;;;;;;;21.59;50.34;100732.91;2102587;28;20052;-71
2022/05/22 05:22:15;;;;;;;6.03;1.50;;;;;;;21.65;49.92;100732.72;2093073;28;20053;-71
2022/05/22 05:23:40;;;;;;;3.72;1.00;;;;;;;21.72;49.76;100738.78;2092750;28;20052;-71
2022/05/22 05:25:10;;;;;;;5.72;1.20;;;;;;;21.75;49.60;100742.25;2095234;28;20074;-71
2022/05/22 05:26:35;;;;;;;5.70;1.25;;;;;;;21.80;49.41;100734.91;2101144;28;20465;-71
2022/05/22 05:28:02;;;;;;;5.57;1.30;;;;;;;21.85;49.41;100729.44;2108377;28;20043;-71
2022/05/22 05:29:24;;;;;;;6.40;1.40;;;;;;;21.86;49.32;100725.78;2102305;28;20147;-70
2022/05/22 05:30:47;;;;;;;3.78;1.10;;;;;;;21.90;49.60;100738.22;2109140;28;20047;-72
2022/05/22 05:32:10;;;;;;;4.88;1.20;;;;;;;21.94;49.76;100731.81;2102867;28;20044;-70
2022/05/22 05:33:33;;;;;;;3.53;1.10;;;;;;;21.99;49.47;100729.03;2103274;28;20051;-71
2022/05/22 05:35:03;;;;;;;7.40;1.67;;;;;;;22.02;49.65;100731.59;2110171;28;20052;-71
2022/05/22 05:36:29;;;;;;;5.55;1.30;;;;;;;22.08;49.61;100729.59;2107595;28;20048;-71
2022/05/22 05:38:00;;;;;;;2.60;1.52;;;;;;;22.15;49.23;100722.22;2097111;28;20060;-71
2022/05/22 05:39:27;;;;;;;4.10;1.23;;;;;;;22.24;49.08;100725.50;2103062;28;20139;-72
2022/05/22 05:41:02;;;;;;;8.82;1.75;;;;;;;22.36;48.86;100724.19;2096751;28;20572;-71
2022/05/22 05:42:24;;;;;;;2.03;0.95;;;;;;;22.54;48.17;100718.19;2091939;28;20044;-71
2022/05/22 05:43:47;;;;;;;5.30;0.93;;;;;;;22.78;47.43;100726.34;2100148;28;20044;-71
2022/05/22 05:45:13;;;;;;;3.80;1.30;;;;;;;23.04;46.70;100719.09;2109981;28;20062;-71
2022/05/22 05:46:49;;;;;;;4.07;1.23;;;;;;;23.43;45.96;100710.50;2102253;28;20044;-71
2022/05/22 05:48:13;;;;;;;4.93;1.10;;;;;;;23.82;45.26;100710.81;2096933;28;20539;-71
2022/05/22 05:49:42;;;;;;;5.18;1.83;;;;;;;24.23;44.67;100715.41;2101086;28;20048;-71
2022/05/22 05:51:21;;;;;;;2.00;0.90;;;;;;;24.69;44.13;100716.16;2111030;28;20801;-71
2022/05/22 05:52:49;;;;;;;5.70;1.10;;;;;;;25.19;42.77;100724.78;2097386;28;20504;-71
2022/05/22 05:54:38;;;;;;;4.97;1.13;;;;;;;25.80;42.05;100727.31;2097211;28;20051;-72
2022/05/22 05:56:20;;;;;;;3.65;1.25;;;;;;;26.23;40.91;100715.31;2105720;28;20147;-71
2022/05/22 05:57:42;;;;;;;2.30;0.93;;;;;;;26.62;39.39;100717.84;2102959;28;20051;-71
2022/05/22 05:59:06;;;;;;;6.65;1.52;;;;;;;27.08;38.94;100708.22;2100414;28;20052;-71
2022/05/22 06:00:33;;;;;;;4.43;1.58;;;;;;;27.72;38.00;100719.16;2101407;28;20048;-71
2022/05/22 06:01:56;;;;;;;6.60;1.20;;;;;;;28.24;37.38;100723.47;2097195;28;20052;-71
2022/05/22 06:03:17;;;;;;;3.45;1.17;;;;;;;28.72;36.74;100715.16;2094387;28;20135;-72
2022/05/22 06:04:43;;;;;;;3.28;1.10;;;;;;;29.14;36.23;100725.28;2094868;28;20110;-72
2022/05/22 06:06:07;;;;;;;7.05;1.08;;;;;;;29.55;34.64;100725.41;2099575;28;20127;-71
2022/05/22 06:07:33;;;;;;;3.95;1.10;;;;;;;29.93;34.26;100712.06;2094664;28;20056;-71
2022/05/22 06:08:56;;;;;;;2.75;0.80;;;;;;;30.26;33.96;100708.94;2109072;28;20436;-72
2022/05/22 06:10:27;;;;;;;2.75;1.30;;;;;;;30.58;33.05;100715.00;2096739;28;20056;-72
2022/05/22 06:12:06;;;;;;;2.70;1.00;;;;;;;30.82;32.91;100709.69;2095781;28;20040;-72
2022/05/22 06:13:33;;;;;;;6.03;1.20;;;;;;;31.01;32.46;100707.44;2103517;28;20048;-72
2022/05/22 06:14:56;;;;;;;5.00;0.98;;;;;;;31.18;32.30;100707.13;2103721;28;20135;-72
2022/05/22 06:16:19;;;;;;;5.22;1.30;;;;;;;31.31;31.48;100704.41;2102761;28;20440;-71
2022/05/22 06:17:58;;;;;;;3.88;1.25;;;;;;;31.27;30.94;100703.75;2105189;28;20638;-72
2022/05/22 06:19:53;;;;;;;2.85;1.00;;;;;;;31.30;30.69;100708.16;2100962;28;20404;-71
2022/05/22 06:21:10;;;;;;;1.40;0.70;;;;;;;31.47;29.87;100707.78;2101081;28;20147;-72
2022/05/22 06:22:36;;;;;;;2.88;0.95;;;;;;;31.48;30.37;100698.63;2098895;28;20082;-72
2022/05/22 06:24:00;;;;;;;2.60;1.08;;;;;;;31.50;30.15;100696.66;2098478;28;20772;-72
2022/05/22 06:25:48;;;;;;;6.22;1.73;;;;;;;31.48;29.94;100692.28;2108918;28;20104;-72
2022/05/22 06:27:38;;;;;;;5.43;1.33;;;;;;;31.51;30.11;100690.19;2101810;28;20123;-72
2022/05/22 06:29:21;;;;;;;6.38;0.90;;;;;;;31.79;29.81;100690.94;2098739;28;22155;-72
2022/05/22 06:31:06;;;;;;;6.07;0.90;;;;;;;31.91;28.92;100673.63;2110341;27;20134;-72
2022/05/22 06:32:35;;;;;;;;;;;;;;;31.73;29.19;100675.00;2100832;28;20053;-72
2022/05/22 06:34:18;;;;;;;3.63;0.82;;;;;;;31.80;29.70;100668.13;2102444;28;19939;-72
2022/05/22 06:36:08;;;;;;;6.25;0.90;;;;;;;31.83;29.03;100665.16;2112270;28;20062;-72
2022/05/22 06:37:58;;;;;;;2.67;0.80;;;;;;;31.65;29.44;100659.19;2099049;28;20108;-72
2022/05/22 06:41:46;;;;;;;4.47;1.00;;;;;;;31.95;29.63;100664.25;2105588;28;19924;-72
2022/05/22 06:43:38;;;;;;;7.05;1.23;;;;;;;32.11;29.05;100655.75;2105388;28;20074;-73
2022/05/22 06:45:22;;;;;;;1.80;1.00;;;;;;;32.28;28.82;100658.13;2105262;28;20054;-72
2022/05/22 06:46:58;;;;;;;3.75;0.90;;;;;;;32.34;28.16;100650.31;2105295;28;20767;-73
2022/05/22 06:48:42;;;;;;;6.25;1.35;;;;;;;32.43;27.85;100649.59;2103242;28;20051;-72